Time;durP1;ratioP1;P1;durP2;ratioP2;P2;SDS_P1;SDS_P2;PMS_P1;PMS_P2;Temp;Humidity;BMP_temperature;BMP_pressure;BME280_temperature;BME280_humidity;BME280_pressure;Samples;Min_cycle;Max_cycle;Signal;HPM_P1;HPM_P2
2023/04/06 00:01:36;;;;;;;12.40;8.20;;;;;;;;;;4943977;28;20214;-65
2023/04/06 00:04:02;;;;;;;11.83;7.93;;;;;;;;;;4950874;28;20207;-64
2023/04/06 00:06:27;;;;;;;11.65;8.18;;;;;;;;;;4936718;28;20318;-63
2023/04/06 00:08:52;;;;;;;13.50;7.77;;;;;;;;;;4936814;28;20219;-65
2023/04/06 00:11:18;;;;;;;13.90;7.95;;;;;;;;;;4939819;28;20246;-65
2023/04/06 00:13:44;;;;;;;12.93;7.80;;;;;;;;;;4964780;28;20222;-65
2023/04/06 00:16:09;;;;;;;12.73;7.75;;;;;;;;;;4963765;28;20578;-64
2023/04/06 00:18:35;;;;;;;11.67;7.70;;;;;;;;;;4965037;28;20723;-64
2023/04/06 00:21:00;;;;;;;13.90;8.03;;;;;;;;;;4964069;28;20268;-64
2023/04/06 00:23:26;;;;;;;12.13;8.00;;;;;;;;;;4964213;28;20217;-65
2023/04/06 00:25:51;;;;;;;15.07;8.20;;;;;;;;;;4964842;28;20669;-65
2023/04/06 00:28:17;;;;;;;12.70;7.43;;;;;;;;;;4957029;28;20261;-64
2023/04/06 00:30:42;;;;;;;11.40;7.43;;;;;;;;;;4945645;28;20234;-65
2023/04/06 00:33:07;;;;;;;13.75;7.85;;;;;;;;;;4937005;28;20559;-64
2023/04/06 00:35:32;;;;;;;12.70;7.67;;;;;;;;;;4944795;28;20218;-65
2023/04/06 00:37:58;;;;;;;12.55;7.75;;;;;;;;;;4944720;28;20364;-65
2023/04/06 00:40:23;;;;;;;13.27;7.77;;;;;;;;;;4945749;28;20589;-64
2023/04/06 00:42:49;;;;;;;13.17;8.03;;;;;;;;;;4945443;28;20215;-65
2023/04/06 00:45:14;;;;;;;13.30;8.33;;;;;;;;;;4927396;28;20225;-64
2023/04/06 00:47:39;;;;;;;12.70;7.70;;;;;;;;;;4945631;28;20227;-65
2023/04/06 00:50:05;;;;;;;12.63;7.28;;;;;;;;;;4939821;28;20285;-65
2023/04/06 00:52:30;;;;;;;13.77;8.43;;;;;;;;;;4936630;28;20305;-65
2023/04/06 00:54:55;;;;;;;11.47;7.43;;;;;;;;;;4937350;28;20313;-65
2023/04/06 00:57:21;;;;;;;13.65;8.02;;;;;;;;;;4942219;28;20225;-64
2023/04/06 00:59:46;;;;;;;12.20;7.55;;;;;;;;;;4944927;28;20822;-64
2023/04/06 01:02:11;;;;;;;11.68;7.72;;;;;;;;;;4944561;28;20760;-64
2023/04/06 01:04:37;;;;;;;12.87;7.47;;;;;;;;;;4944913;28;20225;-64
2023/04/06 01:07:02;;;;;;;11.07;7.28;;;;;;;;;;4944237;28;20210;-64
2023/04/06 01:09:28;;;;;;;12.75;7.57;;;;;;;;;;4944674;28;20218;-65
2023/04/06 01:11:53;;;;;;;11.07;7.82;;;;;;;;;;4942445;28;20221;-65
2023/04/06 01:14:19;;;;;;;12.32;7.55;;;;;;;;;;4936372;28;20509;-65
2023/04/06 01:16:44;;;;;;;12.20;7.77;;;;;;;;;;4937407;28;20261;-64
2023/04/06 01:19:10;;;;;;;12.17;7.70;;;;;;;;;;4956157;28;20296;-65
2023/04/06 01:21:36;;;;;;;13.60;8.10;;;;;;;;;;4963970;28;20225;-64
2023/04/06 01:24:01;;;;;;;12.07;7.53;;;;;;;;;;4963373;28;21076;-64
2023/04/06 01:26:29;;;;;;;12.18;8.27;;;;;;;;;;4962963;28;20279;-64
2023/04/06 01:28:54;;;;;;;12.93;8.35;;;;;;;;;;4963647;28;20670;-65
2023/04/06 01:31:19;;;;;;;12.20;7.85;;;;;;;;;;4930811;28;20214;-64
2023/04/06 01:33:45;;;;;;;12.60;8.15;;;;;;;;;;4943982;28;20229;-65
2023/04/06 01:36:10;;;;;;;11.80;7.57;;;;;;;;;;4943222;28;20211;-65
2023/04/06 01:38:36;;;;;;;11.18;8.00;;;;;;;;;;4953460;28;20222;-64
2023/04/06 01:41:01;;;;;;;11.90;7.60;;;;;;;;;;4953237;29;20309;-63
2023/04/06 01:43:26;;;;;;;12.27;8.10;;;;;;;;;;4954014;29;20293;-65
2023/04/06 01:45:51;;;;;;;14.52;8.20;;;;;;;;;;4954515;28;20678;-64
2023/04/06 01:48:17;;;;;;;12.17;8.10;;;;;;;;;;4956510;28;20234;-65
2023/04/06 01:50:42;;;;;;;13.70;8.48;;;;;;;;;;4977368;28;20586;-65
2023/04/06 01:53:07;;;;;;;13.03;8.63;;;;;;;;;;4976691;28;20340;-64
2023/04/06 01:55:32;;;;;;;12.57;7.90;;;;;;;;;;4976549;28;20273;-65
2023/04/06 01:57:58;;;;;;;13.40;8.27;;;;;;;;;;4977472;28;20677;-64
2023/04/06 02:00:23;;;;;;;14.43;7.43;;;;;;;;;;4976705;28;20213;-64
2023/04/06 02:02:48;;;;;;;11.97;7.73;;;;;;;;;;4976348;28;20689;-65
2023/04/06 02:05:13;;;;;;;11.03;7.40;;;;;;;;;;4957766;28;20245;-64
2023/04/06 02:07:39;;;;;;;11.90;7.60;;;;;;;;;;4957694;28;20583;-64
2023/04/06 02:10:04;;;;;;;11.50;7.67;;;;;;;;;;4960071;28;20218;-64
2023/04/06 02:12:29;;;;;;;14.67;7.77;;;;;;;;;;4976901;28;20214;-64
2023/04/06 02:14:55;;;;;;;13.00;8.20;;;;;;;;;;4976219;28;20205;-64
2023/04/06 02:17:20;;;;;;;11.77;7.53;;;;;;;;;;4976670;28;20268;-65
2023/04/06 02:19:45;;;;;;;12.98;8.23;;;;;;;;;;4976757;28;20563;-64
2023/04/06 02:22:11;;;;;;;12.57;8.37;;;;;;;;;;4975517;28;20264;-64
2023/04/06 02:24:36;;;;;;;11.95;7.65;;;;;;;;;;4976740;28;20210;-64
2023/04/06 02:27:01;;;;;;;13.00;7.63;;;;;;;;;;4976182;28;20214;-63
2023/04/06 02:29:27;;;;;;;12.63;7.63;;;;;;;;;;4975552;28;20222;-65
2023/04/06 02:31:52;;;;;;;11.43;7.40;;;;;;;;;;4976710;28;20594;-64
2023/04/06 02:34:17;;;;;;;12.97;8.13;;;;;;;;;;4975808;28;20214;-64
2023/04/06 02:36:44;;;;;;;13.10;8.23;;;;;;;;;;4968775;28;20214;-64
2023/04/06 02:39:10;;;;;;;11.33;7.67;;;;;;;;;;4956484;28;20725;-64
2023/04/06 02:41:35;;;;;;;12.17;7.90;;;;;;;;;;4962268;28;20222;-64
2023/04/06 02:44:00;;;;;;;12.63;7.90;;;;;;;;;;4960819;28;20209;-63
2023/04/06 02:46:25;;;;;;;13.10;7.88;;;;;;;;;;4957048;29;20249;-64
2023/04/06 02:48:51;;;;;;;12.27;8.10;;;;;;;;;;4963047;28;20218;-65
2023/04/06 02:51:16;;;;;;;11.43;8.13;;;;;;;;;;4974832;28;20228;-64
2023/04/06 02:53:41;;;;;;;13.57;8.27;;;;;;;;;;4976088;28;20210;-64
2023/04/06 02:56:07;;;;;;;11.80;8.03;;;;;;;;;;4975613;28;20214;-64
2023/04/06 02:58:32;;;;;;;13.87;8.00;;;;;;;;;;4975660;28;20669;-64
2023/04/06 03:00:57;;;;;;;13.37;8.33;;;;;;;;;;4976089;28;20217;-64
2023/04/06 03:03:23;;;;;;;12.77;8.17;;;;;;;;;;4975701;28;20205;-64
2023/04/06 03:05:48;;;;;;;12.50;8.37;;;;;;;;;;4975120;28;20220;-64
2023/04/06 03:08:13;;;;;;;11.70;7.63;;;;;;;;;;4975576;28;20554;-64
2023/04/06 03:10:38;;;;;;;13.43;8.27;;;;;;;;;;4975822;28;20269;-64
2023/04/06 03:13:04;;;;;;;13.40;7.87;;;;;;;;;;4974621;28;20218;-64
2023/04/06 03:15:29;;;;;;;14.43;8.57;;;;;;;;;;4975903;28;20356;-64
2023/04/06 03:17:54;;;;;;;12.40;8.23;;;;;;;;;;4975884;28;20333;-64
2023/04/06 03:20:20;;;;;;;10.90;8.10;;;;;;;;;;4974471;28;20715;-64
2023/04/06 03:22:45;;;;;;;12.77;8.07;;;;;;;;;;4975729;28;20232;-65
2023/04/06 03:25:10;;;;;;;14.47;8.40;;;;;;;;;;4974316;28;20596;-64
2023/04/06 03:27:35;;;;;;;14.17;8.10;;;;;;;;;;4975597;28;20249;-64
2023/04/06 03:30:01;;;;;;;15.37;8.60;;;;;;;;;;4969657;28;20230;-63
2023/04/06 03:32:26;;;;;;;11.70;8.13;;;;;;;;;;4955220;29;20222;-65
2023/04/06 03:34:51;;;;;;;13.47;8.40;;;;;;;;;;4956210;29;20305;-65
2023/04/06 03:37:17;;;;;;;14.60;9.03;;;;;;;;;;4955801;29;20222;-64
2023/04/06 03:39:42;;;;;;;12.43;8.70;;;;;;;;;;4955171;29;20219;-64
2023/04/06 03:42:08;;;;;;;12.37;8.93;;;;;;;;;;4955665;29;20544;-64
2023/04/06 03:44:33;;;;;;;13.50;9.40;;;;;;;;;;4947577;28;20652;-64
2023/04/06 03:46:59;;;;;;;14.03;8.67;;;;;;;;;;4938512;28;20218;-64
2023/04/06 03:49:24;;;;;;;13.00;8.87;;;;;;;;;;4940009;28;20655;-64
2023/04/06 03:51:50;;;;;;;13.90;8.63;;;;;;;;;;4946169;28;20215;-65
2023/04/06 03:54:15;;;;;;;12.87;8.40;;;;;;;;;;4948442;28;20789;-64
2023/04/06 03:56:40;;;;;;;13.40;8.50;;;;;;;;;;4946734;28;20214;-65
2023/04/06 03:59:05;;;;;;;14.13;8.63;;;;;;;;;;4945659;28;20687;-64
2023/04/06 04:01:31;;;;;;;13.50;8.80;;;;;;;;;;4945801;28;20230;-64
2023/04/06 04:03:56;;;;;;;11.83;8.03;;;;;;;;;;4946085;28;20357;-64
2023/04/06 04:06:21;;;;;;;12.53;8.77;;;;;;;;;;4957914;28;20210;-65
2023/04/06 04:08:46;;;;;;;15.27;8.70;;;;;;;;;;4955524;28;20240;-64
2023/04/06 04:11:12;;;;;;;13.60;8.80;;;;;;;;;;4955812;28;20229;-64
2023/04/06 04:13:37;;;;;;;13.40;9.43;;;;;;;;;;4946036;28;20240;-64
2023/04/06 04:16:03;;;;;;;15.03;9.80;;;;;;;;;;4963582;28;20308;-63
2023/04/06 04:18:28;;;;;;;16.60;11.03;;;;;;;;;;4946116;28;20657;-64
2023/04/06 04:20:53;;;;;;;14.73;9.33;;;;;;;;;;4945370;28;20297;-64
2023/04/06 04:23:18;;;;;;;14.80;9.87;;;;;;;;;;4944597;28;20230;-64
2023/04/06 04:25:44;;;;;;;15.03;10.13;;;;;;;;;;4945623;28;20222;-64
2023/04/06 04:28:10;;;;;;;12.03;8.87;;;;;;;;;;4941532;28;20487;-64
2023/04/06 04:30:35;;;;;;;15.83;9.13;;;;;;;;;;4937112;28;20226;-64
2023/04/06 04:33:00;;;;;;;14.37;9.40;;;;;;;;;;4937428;28;20234;-64
2023/04/06 04:35:26;;;;;;;14.83;9.80;;;;;;;;;;4940710;28;20677;-64
2023/04/06 04:37:51;;;;;;;13.23;9.20;;;;;;;;;;4945304;28;20671;-64
2023/04/06 04:40:17;;;;;;;14.77;9.90;;;;;;;;;;4963232;28;20569;-64
2023/04/06 04:42:42;;;;;;;14.45;9.75;;;;;;;;;;4963580;28;20218;-64
2023/04/06 04:45:07;;;;;;;15.00;10.25;;;;;;;;;;4963882;28;20217;-64
2023/04/06 04:47:33;;;;;;;15.90;9.70;;;;;;;;;;4956682;28;20230;-64
2023/04/06 04:49:58;;;;;;;16.20;10.00;;;;;;;;;;4943355;28;20234;-64
2023/04/06 04:52:23;;;;;;;16.13;9.93;;;;;;;;;;4920992;28;20222;-64
2023/04/06 04:54:49;;;;;;;16.77;10.43;;;;;;;;;;4937015;28;20689;-64
2023/04/06 04:57:14;;;;;;;15.00;10.17;;;;;;;;;;4936511;28;20222;-64
2023/04/06 04:59:39;;;;;;;17.20;10.43;;;;;;;;;;4927988;28;20218;-64
2023/04/06 05:02:05;;;;;;;14.60;9.60;;;;;;;;;;4944274;28;20225;-63
2023/04/06 05:04:30;;;;;;;13.68;9.95;;;;;;;;;;4944775;28;20277;-64
2023/04/06 05:07:02;;;;;;;14.77;10.17;;;;;;;;;;4944942;28;20246;-64
2023/04/06 05:09:29;;;;;;;16.17;9.80;;;;;;;;;;4960872;28;20228;-64
2023/04/06 05:11:54;;;;;;;15.57;10.87;;;;;;;;;;4962621;28;20229;-63
2023/04/06 05:14:19;;;;;;;17.02;12.07;;;;;;;;;;4955889;28;26863;-64
2023/04/06 05:16:45;;;;;;;17.40;10.93;;;;;;;;;;4936858;28;20253;-64
2023/04/06 05:19:11;;;;;;;15.03;10.10;;;;;;;;;;4919444;28;20218;-65
2023/04/06 05:21:36;;;;;;;15.90;10.02;;;;;;;;;;4942678;28;20670;-66
2023/04/06 05:24:02;;;;;;;15.43;10.20;;;;;;;;;;4944587;28;20262;-64
2023/04/06 05:26:27;;;;;;;18.65;10.70;;;;;;;;;;4943655;28;20254;-65
2023/04/06 05:28:53;;;;;;;15.43;11.07;;;;;;;;;;4927837;28;20694;-65
2023/04/06 05:31:18;;;;;;;15.55;10.40;;;;;;;;;;4944205;28;20257;-63
2023/04/06 05:33:43;;;;;;;17.23;10.13;;;;;;;;;;4943989;28;20227;-65
2023/04/06 05:36:09;;;;;;;16.60;10.23;;;;;;;;;;4940183;28;20218;-65
2023/04/06 05:38:34;;;;;;;16.07;10.67;;;;;;;;;;4936458;28;20645;-65
2023/04/06 05:41:00;;;;;;;14.77;9.77;;;;;;;;;;4935851;28;20309;-65
2023/04/06 05:43:25;;;;;;;15.52;9.70;;;;;;;;;;4958498;28;20951;-67
2023/04/06 05:45:50;;;;;;;16.48;11.70;;;;;;;;;;4963188;28;20225;-65
2023/04/06 05:48:15;;;;;;;18.27;10.97;;;;;;;;;;4949681;28;20214;-65
2023/04/06 05:50:41;;;;;;;18.75;11.05;;;;;;;;;;4944965;28;20246;-65
2023/04/06 05:53:06;;;;;;;15.10;10.63;;;;;;;;;;4943117;28;20226;-64
2023/04/06 05:55:31;;;;;;;16.02;10.48;;;;;;;;;;4944648;28;20242;-65
2023/04/06 05:57:56;;;;;;;16.50;10.80;;;;;;;;;;4942279;28;20573;-66
2023/04/06 06:00:22;;;;;;;17.52;11.02;;;;;;;;;;4935810;28;20506;-66
2023/04/06 06:02:47;;;;;;;15.80;10.68;;;;;;;;;;4936095;28;20237;-66
2023/04/06 06:05:12;;;;;;;19.80;10.68;;;;;;;;;;4944277;28;20211;-65
2023/04/06 06:07:38;;;;;;;14.15;10.75;;;;;;;;;;4947601;28;20301;-65
2023/04/06 06:10:03;;;;;;;14.98;10.77;;;;;;;;;;4953044;28;20227;-65
2023/04/06 06:12:28;;;;;;;17.20;11.18;;;;;;;;;;4953541;29;20338;-65
2023/04/06 06:14:54;;;;;;;16.10;11.18;;;;;;;;;;4953251;29;20218;-65
2023/04/06 06:17:19;;;;;;;17.20;12.05;;;;;;;;;;4953176;29;20230;-65
2023/04/06 06:19:44;;;;;;;18.58;12.13;;;;;;;;;;4953780;29;20633;-65
2023/04/06 06:22:10;;;;;;;17.90;11.52;;;;;;;;;;4952177;29;20742;-65
2023/04/06 06:24:35;;;;;;;16.50;11.75;;;;;;;;;;4953705;29;20223;-65
2023/04/06 06:27:00;;;;;;;16.70;11.93;;;;;;;;;;4957096;28;20218;-63
2023/04/06 06:29:25;;;;;;;15.77;11.52;;;;;;;;;;4971458;28;20724;-66
2023/04/06 06:31:51;;;;;;;15.07;11.65;;;;;;;;;;4956236;28;20225;-65
2023/04/06 06:34:16;;;;;;;16.63;10.77;;;;;;;;;;4975790;28;20305;-65
2023/04/06 06:36:41;;;;;;;16.33;11.40;;;;;;;;;;4934154;28;20273;-66
2023/04/06 06:39:07;;;;;;;17.70;11.85;;;;;;;;;;4956522;29;20218;-65
2023/04/06 06:41:32;;;;;;;16.95;12.13;;;;;;;;;;4957202;29;20222;-65
2023/04/06 06:43:57;;;;;;;11.07;7.38;;;;;;;;;;4956261;29;20281;-64
2023/04/06 06:46:22;;;;;;;16.35;11.25;;;;;;;;;;4956884;29;20218;-65
2023/04/06 06:48:48;;;;;;;16.23;11.85;;;;;;;;;;4962585;28;20611;-65
2023/04/06 06:51:13;;;;;;;15.82;12.25;;;;;;;;;;4974905;28;20218;-65
2023/04/06 06:53:38;;;;;;;13.55;9.50;;;;;;;;;;4976239;28;20222;-65
2023/04/06 06:56:04;;;;;;;12.57;9.00;;;;;;;;;;4975754;28;20268;-65
2023/04/06 06:58:29;;;;;;;18.75;11.90;;;;;;;;;;4967933;28;20226;-67
2023/04/06 07:00:56;;;;;;;19.45;12.50;;;;;;;;;;4965818;28;20207;-68
2023/04/06 07:03:22;;;;;;;17.80;12.85;;;;;;;;;;4963004;28;20674;-65
2023/04/06 07:05:52;;;;;;;15.05;11.52;;;;;;;;;;4962307;28;20211;-67
2023/04/06 07:08:17;;;;;;;18.70;12.82;;;;;;;;;;4941012;28;20583;-67
2023/04/06 07:10:43;;;;;;;18.85;13.02;;;;;;;;;;4956253;28;20298;-68
2023/04/06 07:13:08;;;;;;;16.98;12.68;;;;;;;;;;4967434;28;20216;-69
2023/04/06 07:15:33;;;;;;;19.75;12.90;;;;;;;;;;4956899;29;20301;-66
2023/04/06 07:17:59;;;;;;;16.85;12.75;;;;;;;;;;4956644;28;20213;-67
2023/04/06 07:20:24;;;;;;;16.90;12.35;;;;;;;;;;4955725;28;20210;-68
2023/04/06 07:22:50;;;;;;;17.63;12.90;;;;;;;;;;4955981;29;20234;-68
2023/04/06 07:25:15;;;;;;;21.25;13.13;;;;;;;;;;4955107;29;20233;-68
2023/04/06 07:27:40;;;;;;;18.98;12.98;;;;;;;;;;4955992;28;20577;-67
2023/04/06 07:30:06;;;;;;;19.08;12.88;;;;;;;;;;4955830;28;20682;-66
2023/04/06 07:32:31;;;;;;;19.73;12.38;;;;;;;;;;4956223;28;20277;-67
2023/04/06 07:34:57;;;;;;;18.00;12.65;;;;;;;;;;4956242;29;20211;-67
2023/04/06 07:37:23;;;;;;;20.48;13.52;;;;;;;;;;4955475;29;20647;-67
2023/04/06 07:39:48;;;;;;;19.77;12.88;;;;;;;;;;4955453;29;20333;-67
2023/04/06 07:42:13;;;;;;;19.02;13.00;;;;;;;;;;4955583;29;20214;-67
2023/04/06 07:44:39;;;;;;;16.92;12.70;;;;;;;;;;4955226;28;20667;-67
2023/04/06 07:47:04;;;;;;;19.33;12.98;;;;;;;;;;4959023;28;20202;-67
2023/04/06 07:49:30;;;;;;;22.23;12.30;;;;;;;;;;4965381;28;20234;-67
2023/04/06 07:51:55;;;;;;;19.85;12.73;;;;;;;;;;4955534;29;20302;-67
2023/04/06 07:54:21;;;;;;;19.10;12.80;;;;;;;;;;4954753;29;20222;-67
2023/04/06 07:56:46;;;;;;;17.92;12.90;;;;;;;;;;4956082;29;20299;-67
2023/04/06 07:59:11;;;;;;;20.27;13.30;;;;;;;;;;4955101;29;20637;-67
2023/04/06 08:01:36;;;;;;;17.85;12.60;;;;;;;;;;4955043;29;20230;-66
2023/04/06 08:04:02;;;;;;;18.52;12.85;;;;;;;;;;4955476;29;20219;-67
2023/04/06 08:06:27;;;;;;;17.73;13.00;;;;;;;;;;4954907;29;20572;-67
2023/04/06 08:08:53;;;;;;;21.00;13.40;;;;;;;;;;4937885;29;20218;-67
2023/04/06 08:11:18;;;;;;;20.00;13.77;;;;;;;;;;4954946;29;20238;-67
2023/04/06 08:13:43;;;;;;;18.80;13.57;;;;;;;;;;4954695;29;20214;-67
2023/04/06 08:16:09;;;;;;;19.85;13.65;;;;;;;;;;4954968;29;20210;-67
2023/04/06 08:18:34;;;;;;;23.52;14.27;;;;;;;;;;4955424;29;20229;-67
2023/04/06 08:20:59;;;;;;;18.00;14.02;;;;;;;;;;4954269;29;20218;-67
2023/04/06 08:23:25;;;;;;;20.98;13.93;;;;;;;;;;4954872;29;20605;-67
2023/04/06 08:25:52;;;;;;;20.17;13.63;;;;;;;;;;4953448;28;20230;-67
2023/04/06 08:28:17;;;;;;;18.45;14.02;;;;;;;;;;4953834;29;20215;-67
2023/04/06 08:30:43;;;;;;;20.77;15.00;;;;;;;;;;4954944;28;20719;-67
2023/04/06 08:33:08;;;;;;;22.20;13.90;;;;;;;;;;4954513;28;20238;-67
2023/04/06 08:35:33;;;;;;;22.35;13.73;;;;;;;;;;4954212;28;20578;-67
2023/04/06 08:37:59;;;;;;;21.73;14.30;;;;;;;;;;4955127;28;20225;-67
2023/04/06 08:40:24;;;;;;;20.83;14.43;;;;;;;;;;4954494;28;20289;-66
2023/04/06 08:42:50;;;;;;;20.00;14.13;;;;;;;;;;4954441;28;20221;-67
2023/04/06 08:45:16;;;;;;;19.10;13.80;;;;;;;;;;4954299;28;20585;-67
2023/04/06 08:47:41;;;;;;;25.23;15.60;;;;;;;;;;4954978;28;20269;-67
2023/04/06 08:50:08;;;;;;;20.88;15.10;;;;;;;;;;4950779;28;20232;-66
2023/04/06 08:52:34;;;;;;;20.50;14.25;;;;;;;;;;4956818;28;20217;-67
2023/04/06 08:54:59;;;;;;;20.00;14.55;;;;;;;;;;4974126;28;20277;-67
2023/04/06 08:57:25;;;;;;;23.98;14.07;;;;;;;;;;4972845;28;20213;-67
2023/04/06 08:59:51;;;;;;;20.10;14.25;;;;;;;;;;4974146;28;20218;-67
2023/04/06 09:02:17;;;;;;;21.23;14.90;;;;;;;;;;4973420;28;20214;-66
2023/04/06 09:04:42;;;;;;;20.88;14.93;;;;;;;;;;4955948;28;20213;-64
2023/04/06 09:07:07;;;;;;;21.25;14.52;;;;;;;;;;4960648;28;20629;-66
2023/04/06 09:09:33;;;;;;;20.88;14.07;;;;;;;;;;4954427;29;20218;-67
2023/04/06 09:12:03;;;;;;;21.42;14.63;;;;;;;;;;4953842;29;20211;-65
2023/04/06 09:14:36;;;;;;;21.83;15.18;;;;;;;;;;4954399;29;20222;-65
2023/04/06 09:17:01;;;;;;;22.40;14.82;;;;;;;;;;4954150;28;20207;-64
2023/04/06 09:19:27;;;;;;;22.85;14.60;;;;;;;;;;4954640;29;20213;-65
2023/04/06 09:22:04;;;;;;;22.40;14.85;;;;;;;;;;4954230;29;20669;-65
2023/04/06 09:24:46;;;;;;;21.58;15.23;;;;;;;;;;4953379;29;20210;-65
2023/04/06 09:27:11;;;;;;;23.63;15.75;;;;;;;;;;4953501;29;20583;-65
2023/04/06 09:29:37;;;;;;;19.95;15.00;;;;;;;;;;4956096;28;20227;-65
2023/04/06 09:32:04;;;;;;;24.55;14.98;;;;;;;;;;4971901;28;20316;-64
2023/04/06 09:34:29;;;;;;;20.60;15.15;;;;;;;;;;4973386;28;20214;-65
2023/04/06 09:36:55;;;;;;;22.10;14.80;;;;;;;;;;4973733;28;20272;-64
2023/04/06 09:39:22;;;;;;;20.73;15.02;;;;;;;;;;4972153;28;20245;-65
2023/04/06 09:41:49;;;;;;;26.23;16.10;;;;;;;;;;4973526;28;20226;-64
2023/04/06 09:44:14;;;;;;;20.48;15.30;;;;;;;;;;4973043;28;20265;-65
2023/04/06 09:46:41;;;;;;;21.02;14.98;;;;;;;;;;4971267;28;20230;-64
2023/04/06 09:49:07;;;;;;;21.83;14.85;;;;;;;;;;4959676;28;20707;-64
2023/04/06 09:51:36;;;;;;;22.42;15.30;;;;;;;;;;4973666;28;20249;-64
2023/04/06 09:54:04;;;;;;;24.48;16.45;;;;;;;;;;4972494;28;20712;-63
2023/04/06 09:56:31;;;;;;;20.85;14.45;;;;;;;;;;4956549;28;20300;-64
2023/04/06 09:58:58;;;;;;;21.63;16.08;;;;;;;;;;4956445;28;20247;-64
2023/04/06 10:01:23;;;;;;;27.25;15.60;;;;;;;;;;4954850;28;20232;-64
2023/04/06 10:03:51;;;;;;;22.27;15.55;;;;;;;;;;4956008;28;20605;-64
2023/04/06 10:06:17;;;;;;;22.88;16.10;;;;;;;;;;4954886;28;20209;-64
2023/04/06 10:08:42;;;;;;;23.63;15.35;;;;;;;;;;4958675;28;20629;-64
2023/04/06 10:11:08;;;;;;;23.33;15.45;;;;;;;;;;4959287;28;20292;-64
2023/04/06 10:13:34;;;;;;;22.85;15.60;;;;;;;;;;4976365;28;20240;-64
2023/04/06 10:16:00;;;;;;;23.23;15.60;;;;;;;;;;4959556;28;20661;-64
2023/04/06 10:18:25;;;;;;;23.23;15.48;;;;;;;;;;4941399;29;20563;-64
2023/04/06 10:20:53;;;;;;;22.25;16.05;;;;;;;;;;4956904;28;20297;-64
2023/04/06 10:23:19;;;;;;;23.30;15.43;;;;;;;;;;4940153;28;20217;-64
2023/04/06 10:25:53;;;;;;;21.27;15.48;;;;;;;;;;4957510;28;20568;-64
2023/04/06 10:28:18;;;;;;;22.98;15.40;;;;;;;;;;4939035;28;20624;-64
2023/04/06 10:30:44;;;;;;;29.08;15.43;;;;;;;;;;4957018;28;20706;-64
2023/04/06 10:33:13;;;;;;;26.08;16.08;;;;;;;;;;4956633;29;20272;-64
2023/04/06 10:35:38;;;;;;;22.55;16.27;;;;;;;;;;4939339;29;20678;-64
2023/04/06 10:38:04;;;;;;;23.83;16.42;;;;;;;;;;4956907;29;20214;-64
2023/04/06 10:40:31;;;;;;;26.25;15.98;;;;;;;;;;4957291;29;20210;-64
2023/04/06 10:43:06;;;;;;;27.95;16.88;;;;;;;;;;4956438;29;20214;-64
2023/04/06 10:45:31;;;;;;;25.90;16.27;;;;;;;;;;4939686;29;20214;-64
2023/04/06 10:47:56;;;;;;;22.88;16.15;;;;;;;;;;4968317;28;20225;-65
2023/04/06 10:50:22;;;;;;;23.95;15.98;;;;;;;;;;4958113;28;20233;-64
2023/04/06 10:52:47;;;;;;;25.15;16.10;;;;;;;;;;4957218;29;20257;-64
2023/04/06 10:55:13;;;;;;;25.90;16.13;;;;;;;;;;4939347;29;20653;-64
2023/04/06 10:57:38;;;;;;;25.08;16.48;;;;;;;;;;4956353;29;20262;-64
2023/04/06 11:00:05;;;;;;;23.90;16.27;;;;;;;;;;4956433;29;20242;-64
2023/04/06 11:02:31;;;;;;;21.77;15.25;;;;;;;;;;4955937;29;20222;-64
2023/04/06 11:04:57;;;;;;;24.42;15.35;;;;;;;;;;4956761;29;20587;-64
2023/04/06 11:07:24;;;;;;;26.08;15.63;;;;;;;;;;4956194;29;20218;-64
2023/04/06 11:09:50;;;;;;;25.92;14.20;;;;;;;;;;4956109;29;20277;-64
2023/04/06 11:12:23;;;;;;;21.05;13.38;;;;;;;;;;4955931;29;20218;-64
2023/04/06 11:15:05;;;;;;;29.92;17.92;;;;;;;;;;4939928;29;20223;-64
2023/04/06 11:17:31;;;;;;;19.05;13.02;;;;;;;;;;4955124;29;20225;-64
2023/04/06 11:19:57;;;;;;;22.25;13.70;;;;;;;;;;4955248;28;20215;-64
2023/04/06 11:22:22;;;;;;;18.75;12.38;;;;;;;;;;4955851;29;20245;-64
2023/04/06 11:24:48;;;;;;;18.92;12.10;;;;;;;;;;4955802;29;20699;-64
2023/04/06 11:27:15;;;;;;;17.02;12.95;;;;;;;;;;4955815;29;20210;-64
2023/04/06 11:29:41;;;;;;;16.27;12.57;;;;;;;;;;4958942;28;20226;-64
2023/04/06 11:32:07;;;;;;;18.73;12.80;;;;;;;;;;4973889;28;20608;-64
2023/04/06 11:34:35;;;;;;;17.42;12.55;;;;;;;;;;4975556;28;20269;-64
2023/04/06 11:37:01;;;;;;;18.25;11.93;;;;;;;;;;4975014;28;20213;-63
2023/04/06 11:39:27;;;;;;;18.38;12.20;;;;;;;;;;4957489;28;20220;-64
2023/04/06 11:41:53;;;;;;;18.83;13.32;;;;;;;;;;4975404;28;20645;-64
2023/04/06 11:44:33;;;;;;;21.02;13.13;;;;;;;;;;4975068;28;20221;-64
2023/04/06 11:46:58;;;;;;;17.98;12.55;;;;;;;;;;4971684;28;20210;-64
2023/04/06 11:49:28;;;;;;;19.85;13.63;;;;;;;;;;4964238;28;20304;-64
2023/04/06 11:51:53;;;;;;;21.35;12.73;;;;;;;;;;4974371;28;20218;-64
2023/04/06 11:54:29;;;;;;;20.25;13.07;;;;;;;;;;4974742;28;20292;-64
2023/04/06 11:56:54;;;;;;;17.85;12.65;;;;;;;;;;4975332;28;20214;-64
2023/04/06 11:59:21;;;;;;;17.92;12.20;;;;;;;;;;4973661;28;20334;-64
2023/04/06 12:01:46;;;;;;;18.77;12.90;;;;;;;;;;4975009;28;20233;-64
2023/04/06 12:04:11;;;;;;;22.08;16.92;;;;;;;;;;4974593;28;20676;-64
2023/04/06 12:06:37;;;;;;;17.88;12.23;;;;;;;;;;4973994;28;20218;-64
2023/04/06 12:09:02;;;;;;;16.10;11.75;;;;;;;;;;4962921;28;20726;-63
2023/04/06 12:11:27;;;;;;;16.35;11.43;;;;;;;;;;4971775;28;20210;-64
2023/04/06 12:13:53;;;;;;;16.80;10.40;;;;;;;;;;4974237;28;20688;-64
2023/04/06 12:16:19;;;;;;;14.55;10.68;;;;;;;;;;4973478;28;20218;-65
2023/04/06 12:18:44;;;;;;;16.67;10.15;;;;;;;;;;4964649;28;20210;-68
2023/04/06 12:21:10;;;;;;;27.13;17.80;;;;;;;;;;4953771;29;20226;-66
2023/04/06 12:23:35;;;;;;;16.88;11.30;;;;;;;;;;4962423;28;20661;-65
2023/04/06 12:26:01;;;;;;;14.52;10.02;;;;;;;;;;4968719;28;20289;-63
2023/04/06 12:28:27;;;;;;;15.90;10.75;;;;;;;;;;4954325;29;20215;-65
2023/04/06 12:30:52;;;;;;;14.02;10.18;;;;;;;;;;4954993;28;20232;-65
2023/04/06 12:33:17;;;;;;;13.18;8.27;;;;;;;;;;4952032;28;20245;-65
2023/04/06 12:35:42;;;;;;;16.15;9.60;;;;;;;;;;4954163;29;20671;-65
2023/04/06 12:38:08;;;;;;;14.80;10.30;;;;;;;;;;4954597;29;20222;-65
2023/04/06 12:40:37;;;;;;;15.15;10.85;;;;;;;;;;4955373;29;20214;-66
2023/04/06 12:43:03;;;;;;;15.65;10.60;;;;;;;;;;4953621;29;20226;-65
2023/04/06 12:45:28;;;;;;;14.68;10.95;;;;;;;;;;4954901;29;20620;-65
2023/04/06 12:47:53;;;;;;;15.30;10.75;;;;;;;;;;4964975;28;20296;-65
2023/04/06 12:50:19;;;;;;;15.90;9.90;;;;;;;;;;4956636;28;20226;-65
2023/04/06 12:52:44;;;;;;;13.10;9.05;;;;;;;;;;4954684;29;20222;-65
2023/04/06 12:55:10;;;;;;;16.00;10.27;;;;;;;;;;4954017;29;20255;-65
2023/04/06 12:57:36;;;;;;;13.60;9.07;;;;;;;;;;4955084;29;20210;-64
2023/04/06 13:00:02;;;;;;;11.98;8.45;;;;;;;;;;4954467;29;20226;-65
2023/04/06 13:02:28;;;;;;;13.25;8.70;;;;;;;;;;4953965;29;20265;-65
2023/04/06 13:04:53;;;;;;;12.75;8.45;;;;;;;;;;4954329;29;20222;-65
2023/04/06 13:07:18;;;;;;;11.27;7.68;;;;;;;;;;4957103;28;20201;-65
2023/04/06 13:09:44;;;;;;;10.93;7.00;;;;;;;;;;4973235;28;20299;-68
2023/04/06 13:12:09;;;;;;;10.93;7.50;;;;;;;;;;4973262;28;20210;-69
2023/04/06 13:14:35;;;;;;;12.32;7.15;;;;;;;;;;4974061;28;20217;-69
2023/04/06 13:17:00;;;;;;;8.85;5.88;;;;;;;;;;4966578;28;20207;-69
2023/04/06 13:19:26;;;;;;;10.93;6.85;;;;;;;;;;4953784;28;20222;-69
2023/04/06 13:21:51;;;;;;;11.30;6.93;;;;;;;;;;4954254;28;20226;-68
2023/04/06 13:24:17;;;;;;;9.90;6.50;;;;;;;;;;4953533;28;20214;-69
2023/04/06 13:26:42;;;;;;;10.52;6.57;;;;;;;;;;4954436;28;20222;-69
2023/04/06 13:29:07;;;;;;;11.13;7.35;;;;;;;;;;4953833;29;20246;-69
2023/04/06 13:31:32;;;;;;;12.57;7.07;;;;;;;;;;4953186;29;20238;-69
2023/04/06 13:33:58;;;;;;;10.95;7.35;;;;;;;;;;4967082;28;20581;-69
2023/04/06 13:36:23;;;;;;;10.23;7.47;;;;;;;;;;4973266;28;20217;-70
2023/04/06 13:38:48;;;;;;;10.77;7.25;;;;;;;;;;4968893;28;20273;-70
2023/04/06 13:41:20;;;;;;;10.48;7.28;;;;;;;;;;4953834;29;20221;-69
2023/04/06 13:43:46;;;;;;;13.95;7.93;;;;;;;;;;4939589;29;20690;-69
2023/04/06 13:46:11;;;;;;;11.48;7.40;;;;;;;;;;4957179;29;20245;-69
2023/04/06 13:48:36;;;;;;;14.35;7.32;;;;;;;;;;4960711;28;20225;-69
2023/04/06 13:51:08;;;;;;;9.75;7.28;;;;;;;;;;4959340;28;20700;-68
2023/04/06 13:53:34;;;;;;;12.35;7.88;;;;;;;;;;4977312;28;20678;-69
2023/04/06 13:55:59;;;;;;;10.85;7.38;;;;;;;;;;4976306;28;20227;-69
2023/04/06 13:58:25;;;;;;;11.45;7.65;;;;;;;;;;4964894;28;20232;-69
2023/04/06 14:00:50;;;;;;;9.57;6.97;;;;;;;;;;4954448;28;20230;-69
2023/04/06 14:03:15;;;;;;;12.52;8.20;;;;;;;;;;4954514;28;20214;-69
2023/04/06 14:05:41;;;;;;;10.38;7.78;;;;;;;;;;4949588;28;20218;-71
2023/04/06 14:08:06;;;;;;;12.10;7.70;;;;;;;;;;4968120;28;20705;-67
2023/04/06 14:10:31;;;;;;;12.98;7.90;;;;;;;;;;4970872;28;20230;-68
2023/04/06 14:12:57;;;;;;;11.25;8.18;;;;;;;;;;4934947;28;21275;-68
2023/04/06 14:15:23;;;;;;;12.48;8.23;;;;;;;;;;4958596;28;20210;-68